createdAt,value
2023-03-13T00:02:16.090Z,5.10
2023-03-13T00:04:45.210Z,3.40
2023-03-13T00:07:14.529Z,3.10
2023-03-13T00:09:43.812Z,3.10
2023-03-13T00:12:13.001Z,2.70
2023-03-13T00:14:42.504Z,3.00
2023-03-13T00:17:11.929Z,2.90
2023-03-13T00:19:40.926Z,3.30
2023-03-13T00:22:09.889Z,3.10
2023-03-13T00:24:39.072Z,4.20
2023-03-13T00:27:07.925Z,3.60
2023-03-13T00:29:37.115Z,2.80
2023-03-13T00:32:06.730Z,9.10
2023-03-13T00:34:35.865Z,3.80
2023-03-13T00:37:05.207Z,15.30
2023-03-13T00:39:34.425Z,6.90
2023-03-13T00:42:04.426Z,4.20
2023-03-13T00:44:33.140Z,2.10
2023-03-13T00:47:02.539Z,1.90
2023-03-13T00:49:31.180Z,1.80
2023-03-13T00:52:00.070Z,2.30
2023-03-13T00:54:29.226Z,2.20
2023-03-13T00:56:58.122Z,2.30
2023-03-13T00:59:26.883Z,2.00
2023-03-13T01:01:55.691Z,2.10
2023-03-13T01:04:24.722Z,2.30
2023-03-13T01:06:53.597Z,2.70
2023-03-13T01:09:22.396Z,2.30
2023-03-13T01:11:51.417Z,2.40
2023-03-13T01:14:20.943Z,1.80
2023-03-13T01:16:49.724Z,2.00
2023-03-13T01:19:19.948Z,3.00
2023-03-13T01:21:48.741Z,4.20
2023-03-13T01:24:19.695Z,3.00
2023-03-13T01:26:48.522Z,2.70
2023-03-13T01:29:17.516Z,3.90
2023-03-13T01:31:46.345Z,2.20
2023-03-13T01:34:15.151Z,2.00
2023-03-13T01:36:44.424Z,2.00
2023-03-13T01:39:13.267Z,2.00
2023-03-13T01:41:42.063Z,1.70
2023-03-13T01:44:26.592Z,1.80
2023-03-13T01:46:55.597Z,2.10
2023-03-13T01:49:33.769Z,1.80
2023-03-13T01:52:09.543Z,1.90
2023-03-13T01:54:44.195Z,2.10
2023-03-13T01:57:27.864Z,2.00
2023-03-13T02:00:08.594Z,3.10
2023-03-13T02:02:41.871Z,2.60
2023-03-13T02:05:11.136Z,1.80
2023-03-13T02:08:01.993Z,1.80
2023-03-13T02:10:34.312Z,1.80
2023-03-13T02:13:03.897Z,2.10
2023-03-13T02:15:34.532Z,1.80
2023-03-13T02:18:03.480Z,1.80
2023-03-13T02:20:32.265Z,1.80
2023-03-13T02:23:08.291Z,1.80
2023-03-13T02:25:49.736Z,1.90
2023-03-13T02:28:20.980Z,2.00
2023-03-13T02:30:53.036Z,2.00
2023-03-13T02:33:27.124Z,1.90
2023-03-13T02:35:57.542Z,2.20
2023-03-13T02:38:30.354Z,1.90
2023-03-13T02:41:02.263Z,1.90
2023-03-13T02:43:34.390Z,2.00
2023-03-13T02:46:05.779Z,2.00
2023-03-13T02:48:41.593Z,2.00
2023-03-13T02:51:26.529Z,2.10
2023-03-13T02:53:59.665Z,2.20
2023-03-13T02:56:32.411Z,2.20
2023-03-13T02:59:01.265Z,2.10
2023-03-13T03:01:31.038Z,2.10
2023-03-13T03:03:59.893Z,2.10
2023-03-13T03:06:29.132Z,2.10
2023-03-13T03:08:58.156Z,2.30
2023-03-13T03:11:27.108Z,2.40
2023-03-13T03:13:56.574Z,2.40
2023-03-13T03:16:25.612Z,2.00
2023-03-13T03:18:54.585Z,2.00
2023-03-13T03:21:24.373Z,2.10
2023-03-13T03:23:53.859Z,2.00
2023-03-13T03:26:22.823Z,2.00
2023-03-13T03:28:51.928Z,2.10
2023-03-13T03:31:21.256Z,2.30
2023-03-13T03:33:50.825Z,2.40
2023-03-13T03:36:24.046Z,2.20
2023-03-13T03:38:54.573Z,1.90
2023-03-13T03:41:23.592Z,2.30
2023-03-13T03:43:52.798Z,2.20
2023-03-13T03:46:21.819Z,2.20
2023-03-13T03:48:50.858Z,2.10
2023-03-13T03:51:19.762Z,2.20
2023-03-13T03:53:48.882Z,2.30
2023-03-13T03:56:17.983Z,2.50
2023-03-13T03:58:47.143Z,2.50
2023-03-13T04:01:16.791Z,2.30
2023-03-13T04:03:45.744Z,2.40
2023-03-13T04:06:14.897Z,2.20
2023-03-13T04:08:43.709Z,2.30
2023-03-13T04:11:13.103Z,2.00
2023-03-13T04:13:42.215Z,1.90
2023-03-13T04:16:11.962Z,2.20
2023-03-13T04:18:41.340Z,2.50
2023-03-13T04:21:10.403Z,2.50
2023-03-13T04:23:38.906Z,2.60
2023-03-13T04:26:07.943Z,2.80
2023-03-13T04:28:36.863Z,2.80
2023-03-13T04:31:07.523Z,2.80
2023-03-13T04:33:37.384Z,2.50
2023-03-13T04:36:06.706Z,2.90
2023-03-13T04:38:35.606Z,2.90
2023-03-13T04:41:04.705Z,3.10
2023-03-13T04:43:33.501Z,2.70
2023-03-13T04:46:02.566Z,2.80
2023-03-13T04:48:31.416Z,2.80
2023-03-13T04:51:00.356Z,2.60
2023-03-13T04:53:29.263Z,2.40
2023-03-13T04:55:58.458Z,2.70
2023-03-13T04:58:27.702Z,2.30
2023-03-13T05:00:57.531Z,2.50
2023-03-13T05:03:27.088Z,2.90
2023-03-13T05:05:56.252Z,3.00
2023-03-13T05:08:25.338Z,2.80
2023-03-13T05:10:54.746Z,3.20
2023-03-13T05:13:24.086Z,3.20
2023-03-13T05:15:53.278Z,3.10
2023-03-13T05:18:22.522Z,2.90
2023-03-13T05:20:51.760Z,2.60
2023-03-13T05:23:20.844Z,3.00
2023-03-13T05:25:49.781Z,2.90
2023-03-13T05:28:18.361Z,2.80
2023-03-13T05:30:47.281Z,2.80
2023-03-13T05:33:16.663Z,2.90
2023-03-13T05:35:47.127Z,3.10
2023-03-13T05:38:16.234Z,2.90
2023-03-13T05:40:45.242Z,6.20
2023-03-13T05:43:14.640Z,9.80
2023-03-13T05:45:43.867Z,8.70
2023-03-13T05:48:12.999Z,2.80
2023-03-13T05:50:42.143Z,3.10
2023-03-13T05:53:11.181Z,4.70
2023-03-13T05:55:39.970Z,3.90
2023-03-13T05:58:10.479Z,3.70
2023-03-13T06:00:39.477Z,3.70
2023-03-13T06:03:08.490Z,17.40
2023-03-13T06:05:37.484Z,9.20
2023-03-13T06:08:07.771Z,5.10
2023-03-13T06:10:36.846Z,3.30
2023-03-13T06:13:19.001Z,2.90
2023-03-13T06:15:57.059Z,3.70
2023-03-13T06:18:27.573Z,2.80
2023-03-13T06:20:59.957Z,4.00
2023-03-13T06:23:29.896Z,5.00
2023-03-13T06:25:58.798Z,3.40
2023-03-13T06:28:28.911Z,3.90
2023-03-13T06:31:05.803Z,3.80
2023-03-13T06:33:35.344Z,4.20
2023-03-13T06:36:05.139Z,5.10
2023-03-13T06:38:34.267Z,4.50
2023-03-13T06:41:03.322Z,4.30
2023-03-13T06:43:32.631Z,3.40
2023-03-13T06:46:05.926Z,3.80
2023-03-13T06:48:35.492Z,3.10
2023-03-13T06:51:05.064Z,3.40
2023-03-13T06:53:34.440Z,3.40
2023-03-13T06:56:03.411Z,3.70
2023-03-13T06:58:33.123Z,3.50
2023-03-13T07:01:10.602Z,3.90
2023-03-13T07:03:44.174Z,4.30
2023-03-13T07:06:13.915Z,4.10
2023-03-13T07:08:44.337Z,4.10
2023-03-13T07:11:14.982Z,4.10
2023-03-13T07:13:44.221Z,3.80
2023-03-13T07:16:14.902Z,3.80
2023-03-13T07:18:45.369Z,4.00
2023-03-13T07:21:15.173Z,4.50
2023-03-13T07:23:44.628Z,4.50
2023-03-13T07:26:15.590Z,4.10
2023-03-13T07:28:44.449Z,4.20
2023-03-13T07:31:18.043Z,4.20
2023-03-13T07:33:47.744Z,4.00
2023-03-13T07:36:17.041Z,4.80
2023-03-13T07:38:50.794Z,3.90
2023-03-13T07:41:20.986Z,3.90
2023-03-13T07:43:50.671Z,3.70
2023-03-13T07:46:22.343Z,3.80
2023-03-13T07:48:53.372Z,4.20
2023-03-13T07:51:42.211Z,3.90
2023-03-13T07:54:12.172Z,4.00
2023-03-13T07:56:41.485Z,4.10
2023-03-13T07:59:11.604Z,4.20
2023-03-13T08:01:41.553Z,3.60
2023-03-13T08:04:14.639Z,13.20
2023-03-13T08:06:43.645Z,23.20
2023-03-13T08:09:13.374Z,4.30
2023-03-13T08:11:44.870Z,4.00
2023-03-13T08:14:13.536Z,4.90
2023-03-13T08:16:42.726Z,4.40
2023-03-13T08:19:12.022Z,4.20
2023-03-13T08:21:41.131Z,4.30
2023-03-13T08:24:13.347Z,3.90
2023-03-13T08:26:43.719Z,3.70
2023-03-13T08:29:15.322Z,3.80
2023-03-13T08:31:48.168Z,3.80
2023-03-13T08:34:19.066Z,3.60
2023-03-13T08:36:49.329Z,3.00
2023-03-13T08:39:20.808Z,3.40
2023-03-13T08:41:50.514Z,3.20
2023-03-13T08:44:21.685Z,3.20
2023-03-13T08:46:51.072Z,3.50
2023-03-13T08:49:20.589Z,3.40
2023-03-13T08:51:49.555Z,3.50
2023-03-13T08:54:18.664Z,3.70
2023-03-13T08:56:47.973Z,3.60
2023-03-13T08:59:17.103Z,4.00
2023-03-13T09:01:45.945Z,3.80
2023-03-13T09:04:15.828Z,4.00
2023-03-13T09:06:45.295Z,3.80
2023-03-13T09:09:14.875Z,3.70
2023-03-13T09:11:44.353Z,3.60
2023-03-13T09:14:13.471Z,3.60
2023-03-13T09:16:43.302Z,3.70
2023-03-13T09:19:13.439Z,3.50
2023-03-13T09:21:42.485Z,4.00
2023-03-13T09:24:11.919Z,3.60
2023-03-13T09:26:46.514Z,4.00
2023-03-13T09:29:21.076Z,3.80
2023-03-13T09:31:50.009Z,4.10
2023-03-13T09:34:19.148Z,3.80
2023-03-13T09:36:48.266Z,4.00
2023-03-13T09:39:17.509Z,4.20
2023-03-13T09:42:03.377Z,4.10
2023-03-13T09:45:00.550Z,4.10
2023-03-13T09:47:51.386Z,3.80
2023-03-13T09:50:32.424Z,4.00
2023-03-13T09:53:16.170Z,3.90
2023-03-13T09:55:47.875Z,4.20
2023-03-13T09:58:23.733Z,4.10
2023-03-13T10:00:59.127Z,3.50
2023-03-13T10:03:41.995Z,4.10
2023-03-13T10:06:19.250Z,3.60
2023-03-13T10:08:49.105Z,3.40
2023-03-13T10:11:24.777Z,3.60
2023-03-13T10:14:16.573Z,3.40
2023-03-13T10:17:04.279Z,3.70
2023-03-13T10:19:42.772Z,3.40
2023-03-13T10:22:26.750Z,3.30
2023-03-13T10:25:05.957Z,3.40
2023-03-13T10:27:51.095Z,3.30
2023-03-13T10:30:27.488Z,3.10
2023-03-13T10:33:13.259Z,3.20
2023-03-13T10:35:44.845Z,3.00
2023-03-13T10:38:19.896Z,3.20
2023-03-13T10:41:07.050Z,2.60
2023-03-13T10:43:36.686Z,2.70
2023-03-13T10:46:09.659Z,2.70
2023-03-13T10:48:40.590Z,2.50
2023-03-13T10:51:23.120Z,2.60
2023-03-13T10:53:53.009Z,2.90
2023-03-13T10:56:30.846Z,2.60
2023-03-13T10:59:02.283Z,3.00
2023-03-13T11:01:45.555Z,2.50
2023-03-13T11:04:35.613Z,2.90
2023-03-13T11:07:06.507Z,2.80
2023-03-13T11:09:36.002Z,2.50
2023-03-13T11:12:21.467Z,2.70
2023-03-13T11:14:59.164Z,2.20
2023-03-13T11:17:38.625Z,2.40
2023-03-13T11:20:27.288Z,2.40
2023-03-13T11:23:25.107Z,2.70
2023-03-13T11:26:16.183Z,2.40
2023-03-13T11:29:08.042Z,2.80
2023-03-13T11:31:42.629Z,2.90
2023-03-13T11:34:18.435Z,3.80
2023-03-13T11:36:54.174Z,3.10
2023-03-13T11:39:35.313Z,2.80
2023-03-13T11:42:17.936Z,2.90
2023-03-13T11:44:57.137Z,4.50
2023-03-13T11:47:44.194Z,2.70
2023-03-13T11:50:31.733Z,2.70
2023-03-13T11:53:14.199Z,2.70
2023-03-13T11:55:57.713Z,3.00
2023-03-13T11:58:38.658Z,2.60
2023-03-13T12:01:30.783Z,2.80
2023-03-13T12:04:40.135Z,2.50
2023-03-13T12:07:29.040Z,2.70
2023-03-13T12:10:05.202Z,3.00
2023-03-13T12:12:44.184Z,3.10
2023-03-13T12:15:20.100Z,2.90
2023-03-13T12:18:04.625Z,2.60
2023-03-13T12:20:46.043Z,2.90
2023-03-13T12:23:20.152Z,2.80
2023-03-13T12:26:14.159Z,2.80
2023-03-13T12:29:01.740Z,5.30
2023-03-13T12:31:43.089Z,3.00
2023-03-13T12:34:24.203Z,2.60
2023-03-13T12:37:27.255Z,3.70
2023-03-13T12:40:10.364Z,4.10
2023-03-13T12:42:49.094Z,3.80
2023-03-13T12:45:22.248Z,3.50
2023-03-13T12:47:51.074Z,2.10
2023-03-13T12:50:27.386Z,2.10
2023-03-13T12:53:20.789Z,6.00
2023-03-13T12:56:19.069Z,2.20
2023-03-13T12:58:49.864Z,2.00
2023-03-13T13:01:25.938Z,1.90
2023-03-13T13:04:13.227Z,2.10
2023-03-13T13:06:56.980Z,1.90
2023-03-13T13:09:29.200Z,2.10
2023-03-13T13:12:20.508Z,2.30
2023-03-13T13:14:49.822Z,2.20
2023-03-13T13:17:57.106Z,2.00
2023-03-13T13:20:53.886Z,2.30
2023-03-13T13:23:25.397Z,2.80
2023-03-13T13:25:57.653Z,2.50
2023-03-13T13:28:36.420Z,2.30
2023-03-13T13:31:46.906Z,2.00
2023-03-13T13:34:31.591Z,2.40
2023-03-13T13:37:25.503Z,2.10
2023-03-13T13:39:55.679Z,2.50
2023-03-13T13:42:59.761Z,2.10
2023-03-13T13:45:32.649Z,2.60
2023-03-13T13:48:20.932Z,3.00
2023-03-13T13:51:12.302Z,2.40
2023-03-13T13:53:45.902Z,2.70
2023-03-13T13:56:27.035Z,2.40
2023-03-13T13:59:27.469Z,1.90
2023-03-13T14:02:10.411Z,2.10
2023-03-13T14:05:07.670Z,3.60
2023-03-13T14:07:49.116Z,2.20
2023-03-13T14:10:34.541Z,1.60
2023-03-13T14:13:18.484Z,1.60
2023-03-13T14:15:50.755Z,1.90
2023-03-13T14:18:25.067Z,2.50
2023-03-13T14:21:04.261Z,1.70
2023-03-13T14:23:47.873Z,1.60
2023-03-13T14:26:22.255Z,1.70
2023-03-13T14:28:53.363Z,1.60
2023-03-13T14:31:28.082Z,1.80
2023-03-13T14:34:01.990Z,1.60
2023-03-13T14:36:45.879Z,2.00
2023-03-13T14:39:33.585Z,1.40
2023-03-13T14:42:21.335Z,1.90
2023-03-13T14:44:50.599Z,1.60
2023-03-13T14:47:24.355Z,1.50
2023-03-13T14:50:05.076Z,2.10
2023-03-13T14:52:35.317Z,1.70
2023-03-13T14:55:26.110Z,4.00
2023-03-13T14:57:59.221Z,2.30
2023-03-13T15:00:46.384Z,2.90
2023-03-13T15:03:22.612Z,1.80
2023-03-13T15:06:11.192Z,1.70
2023-03-13T15:08:44.838Z,1.70
2023-03-13T15:11:43.373Z,2.00
2023-03-13T15:14:36.729Z,1.40
2023-03-13T15:17:14.977Z,1.50
2023-03-13T15:19:48.534Z,1.40
2023-03-13T15:22:19.547Z,1.50
2023-03-13T15:25:04.939Z,1.30
2023-03-13T15:27:35.488Z,1.70
2023-03-13T15:30:05.312Z,1.80
2023-03-13T15:32:40.333Z,1.70
2023-03-13T15:35:33.447Z,1.60
2023-03-13T15:38:03.584Z,1.80
2023-03-13T15:40:33.696Z,1.80
2023-03-13T15:43:03.567Z,1.60
2023-03-13T15:45:34.471Z,1.40
2023-03-13T15:48:07.020Z,1.80
2023-03-13T15:50:37.909Z,1.60
2023-03-13T15:53:19.674Z,1.80
2023-03-13T15:55:50.706Z,1.80
2023-03-13T15:58:20.671Z,1.50
2023-03-13T16:00:50.941Z,2.40
2023-03-13T16:03:26.332Z,1.90
2023-03-13T16:05:57.975Z,1.70
2023-03-13T16:08:36.215Z,1.40
2023-03-13T16:11:06.588Z,1.40
2023-03-13T16:13:36.662Z,2.10
2023-03-13T16:16:37.131Z,2.00
2023-03-13T16:19:08.088Z,2.90
2023-03-13T16:21:41.057Z,2.80
2023-03-13T16:24:11.479Z,5.00
2023-03-13T16:26:41.333Z,5.70
2023-03-13T16:29:15.876Z,1.70
2023-03-13T16:31:45.757Z,1.80
2023-03-13T16:34:15.274Z,1.60
2023-03-13T16:36:44.657Z,1.60
2023-03-13T16:39:17.112Z,1.50
2023-03-13T16:41:46.737Z,1.60
2023-03-13T16:44:15.560Z,1.50
2023-03-13T16:46:59.257Z,1.50
2023-03-13T16:49:33.825Z,1.60
2023-03-13T16:52:03.466Z,1.40
2023-03-13T16:54:35.228Z,2.00
2023-03-13T16:57:05.124Z,1.60
2023-03-13T16:59:34.763Z,1.90
2023-03-13T17:02:04.508Z,2.10
2023-03-13T17:04:34.552Z,1.50
2023-03-13T17:07:19.263Z,3.60
2023-03-13T17:09:49.112Z,4.00
2023-03-13T17:12:20.332Z,2.40
2023-03-13T17:14:49.518Z,2.90
2023-03-13T17:17:23.076Z,3.20
2023-03-13T17:19:52.681Z,2.90
2023-03-13T17:22:22.270Z,5.10
2023-03-13T17:24:51.736Z,3.40
2023-03-13T17:27:21.298Z,6.50
2023-03-13T17:29:50.447Z,5.10
2023-03-13T17:32:20.733Z,2.40
2023-03-13T17:34:49.785Z,2.30
2023-03-13T17:37:23.584Z,2.40
2023-03-13T17:39:52.979Z,2.30
2023-03-13T17:42:22.549Z,2.20
2023-03-13T17:44:53.130Z,2.60
2023-03-13T17:47:25.031Z,2.30
2023-03-13T17:49:54.936Z,2.30
2023-03-13T17:52:24.337Z,2.90
2023-03-13T17:54:54.580Z,5.80
2023-03-13T17:57:23.796Z,3.80
2023-03-13T17:59:53.565Z,5.20
2023-03-13T18:02:23.709Z,6.50
2023-03-13T18:04:54.098Z,8.50
2023-03-13T18:07:29.482Z,6.00
2023-03-13T18:09:59.911Z,6.20
2023-03-13T18:12:30.049Z,5.80
2023-03-13T18:14:59.234Z,5.80
2023-03-13T18:17:29.518Z,5.30
2023-03-13T18:19:58.593Z,4.70
2023-03-13T18:22:27.923Z,4.10
2023-03-13T18:24:57.217Z,3.90
2023-03-13T18:27:26.952Z,3.80
2023-03-13T18:29:56.397Z,3.60
2023-03-13T18:32:26.004Z,3.90
2023-03-13T18:34:56.069Z,4.00
2023-03-13T18:37:31.534Z,3.00
2023-03-13T18:40:01.723Z,3.10
2023-03-13T18:42:31.574Z,3.60
2023-03-13T18:45:03.666Z,3.40
2023-03-13T18:47:33.159Z,3.50
2023-03-13T18:50:02.959Z,7.90
2023-03-13T18:52:32.509Z,7.00
2023-03-13T18:55:02.389Z,7.80
2023-03-13T18:57:32.267Z,5.70
2023-03-13T19:00:03.055Z,4.90
2023-03-13T19:02:33.109Z,4.60
2023-03-13T19:05:02.570Z,4.70
2023-03-13T19:07:33.284Z,3.80
2023-03-13T19:10:04.083Z,4.30
2023-03-13T19:12:33.125Z,4.60
2023-03-13T19:15:02.593Z,4.50
2023-03-13T19:17:32.928Z,4.90
2023-03-13T19:20:02.943Z,3.30
2023-03-13T19:22:31.909Z,2.90
2023-03-13T19:25:03.834Z,3.00
2023-03-13T19:27:33.665Z,2.90
2023-03-13T19:30:02.708Z,2.80
2023-03-13T19:32:31.946Z,2.60
2023-03-13T19:35:01.789Z,3.00
2023-03-13T19:37:30.663Z,3.00
2023-03-13T19:40:01.543Z,3.20
2023-03-13T19:42:32.325Z,2.80
2023-03-13T19:45:02.104Z,3.10
2023-03-13T19:47:31.643Z,6.00
2023-03-13T19:50:01.699Z,8.30
2023-03-13T19:52:31.892Z,6.20
2023-03-13T19:55:05.366Z,7.00
2023-03-13T19:57:35.363Z,7.10
2023-03-13T20:00:06.697Z,4.80
2023-03-13T20:02:36.339Z,5.60
2023-03-13T20:05:07.470Z,6.30
2023-03-13T20:07:39.619Z,5.40
2023-03-13T20:10:09.909Z,4.20
2023-03-13T20:12:41.796Z,7.30
2023-03-13T20:15:13.844Z,4.70
2023-03-13T20:17:44.707Z,4.60
2023-03-13T20:20:15.781Z,7.60
2023-03-13T20:22:47.880Z,4.00
2023-03-13T20:25:17.908Z,6.50
2023-03-13T20:27:47.258Z,5.80
2023-03-13T20:30:19.776Z,5.40
2023-03-13T20:32:59.178Z,8.60
2023-03-13T20:35:29.633Z,5.90
2023-03-13T20:38:02.150Z,6.90
2023-03-13T20:40:33.686Z,6.40
2023-03-13T20:43:05.023Z,6.60
2023-03-13T20:45:36.757Z,6.10
2023-03-13T20:48:07.659Z,4.80
2023-03-13T20:50:37.438Z,5.50
2023-03-13T20:53:09.758Z,4.10
2023-03-13T20:55:42.632Z,3.50
2023-03-13T20:58:13.641Z,3.70
2023-03-13T21:00:45.096Z,4.20
2023-03-13T21:03:15.993Z,4.50
2023-03-13T21:05:46.497Z,5.20
2023-03-13T21:08:16.654Z,5.90
2023-03-13T21:10:46.729Z,3.50
2023-03-13T21:13:16.529Z,4.10
2023-03-13T21:15:46.756Z,5.90
2023-03-13T21:18:16.197Z,6.20
2023-03-13T21:20:46.809Z,8.30
2023-03-13T21:23:17.385Z,9.90
2023-03-13T21:25:54.343Z,3.80
2023-03-13T21:28:23.698Z,2.60
2023-03-13T21:30:54.485Z,3.00
2023-03-13T21:33:25.074Z,2.70
2023-03-13T21:35:54.842Z,3.20
2023-03-13T21:38:23.919Z,2.60
2023-03-13T21:40:54.100Z,2.50
2023-03-13T21:43:24.311Z,2.60
2023-03-13T21:45:53.588Z,3.80
2023-03-13T21:48:22.856Z,2.60
2023-03-13T21:50:53.530Z,2.80
2023-03-13T21:53:22.401Z,3.10
2023-03-13T21:55:53.357Z,3.00
2023-03-13T21:58:22.445Z,3.00
2023-03-13T22:00:55.634Z,3.50
2023-03-13T22:03:27.147Z,3.20
2023-03-13T22:05:56.636Z,3.10
2023-03-13T22:08:25.835Z,3.50
2023-03-13T22:10:55.626Z,4.10
2023-03-13T22:13:24.816Z,3.70
2023-03-13T22:15:54.204Z,2.90
2023-03-13T22:18:24.143Z,2.70
2023-03-13T22:20:53.338Z,2.90
2023-03-13T22:23:22.211Z,3.40
2023-03-13T22:25:51.905Z,4.90
2023-03-13T22:28:21.032Z,4.90
2023-03-13T22:30:50.543Z,6.00
2023-03-13T22:33:19.668Z,4.40
2023-03-13T22:35:54.974Z,4.50
2023-03-13T22:38:23.898Z,7.20
2023-03-13T22:41:07.928Z,5.90
2023-03-13T22:43:37.234Z,5.10
2023-03-13T22:46:07.596Z,9.90
2023-03-13T22:48:37.415Z,17.80
2023-03-13T22:51:10.323Z,16.50
2023-03-13T22:53:41.151Z,10.70
2023-03-13T22:56:12.595Z,11.70
2023-03-13T22:58:42.674Z,16.90
2023-03-13T23:01:17.368Z,18.30
2023-03-13T23:03:46.878Z,7.20
2023-03-13T23:06:18.275Z,4.20
2023-03-13T23:08:47.415Z,15.40
2023-03-13T23:11:17.153Z,18.70
2023-03-13T23:13:46.149Z,9.70
2023-03-13T23:16:15.592Z,8.40
2023-03-13T23:18:45.583Z,5.00
2023-03-13T23:21:16.931Z,4.60
2023-03-13T23:23:47.621Z,5.00
2023-03-13T23:26:17.216Z,4.60
2023-03-13T23:28:46.773Z,5.60
2023-03-13T23:31:21.935Z,5.20
2023-03-13T23:33:51.398Z,5.40
2023-03-13T23:36:20.772Z,5.00
2023-03-13T23:38:51.881Z,5.00
2023-03-13T23:41:22.129Z,4.90
2023-03-13T23:43:51.008Z,4.90
2023-03-13T23:46:26.790Z,4.90
2023-03-13T23:48:57.868Z,5.10
2023-03-13T23:51:27.835Z,5.70
2023-03-13T23:53:56.944Z,5.40
2023-03-13T23:56:26.269Z,5.50
2023-03-13T23:58:55.480Z,5.50
